CFG2WR EDDF-EDDS
Flight info
| Callsign | CFG2WR |
|---|---|
| Flight time | 0h 35m |
| Altitude | 17000 |
| Route | ANEKI2L/18 ANEKI Y163 NEKLO Y171 INKAM N850 KRH T128 BADSO BADSO2A |
| Aircraft | A321/M-SDE3FGHIRWY/LB1 |
Departure
| Time | 2026-05-04 15:38 |
|---|---|
| Airport | Frankfurt Main Airport (EDDF) |
Arrival
| Time | 2026-05-04 16:13 |
|---|---|
| Airport | Stuttgart Airport (EDDS) |
| Time | Latitude | Longitude | Altitude | Speed | Heading |
|---|---|---|---|---|---|
| 2026-05-04 15:02 | 50.04835 | 8.57627 | 375 ft | 0 kts | 206° |
| 2026-05-04 15:19 | 50.04859 | 8.57645 | 375 ft | 2 kts | 206° |
| 2026-05-04 15:20 | 50.04870 | 8.57653 | 375 ft | 0 kts | 206° |
| 2026-05-04 15:20 | 50.04882 | 8.57660 | 375 ft | 2 kts | 177° |
| 2026-05-04 15:20 | 50.04896 | 8.57653 | 375 ft | 2 kts | 145° |
| 2026-05-04 15:20 | 50.04905 | 8.57639 | 375 ft | 0 kts | 117° |
| 2026-05-04 15:21 | 50.04907 | 8.57630 | 375 ft | 1 kts | 113° |
| 2026-05-04 15:21 | 50.04908 | 8.57628 | 375 ft | 0 kts | 114° |
| 2026-05-04 15:23 | 50.04897 | 8.57665 | 375 ft | 8 kts | 115° |
| 2026-05-04 15:24 | 50.04848 | 8.57833 | 375 ft | 9 kts | 115° |
| 2026-05-04 15:24 | 50.04726 | 8.57912 | 375 ft | 11 kts | 210° |
| 2026-05-04 15:25 | 50.04683 | 8.57802 | 375 ft | 12 kts | 251° |
| 2026-05-04 15:25 | 50.04651 | 8.57667 | 375 ft | 13 kts | 249° |
| 2026-05-04 15:25 | 50.04616 | 8.57521 | 375 ft | 15 kts | 250° |
| 2026-05-04 15:26 | 50.04540 | 8.57202 | 375 ft | 16 kts | 250° |
| 2026-05-04 15:26 | 50.04500 | 8.57032 | 375 ft | 17 kts | 250° |
| 2026-05-04 15:26 | 50.04415 | 8.56676 | 375 ft | 18 kts | 250° |
| 2026-05-04 15:27 | 50.04370 | 8.56490 | 375 ft | 18 kts | 250° |
| 2026-05-04 15:27 | 50.04327 | 8.56310 | 375 ft | 9 kts | 250° |
| 2026-05-04 15:28 | 50.04265 | 8.56048 | 375 ft | 13 kts | 251° |
| 2026-05-04 15:28 | 50.04230 | 8.55904 | 374 ft | 14 kts | 249° |
| 2026-05-04 15:28 | 50.04158 | 8.55599 | 374 ft | 15 kts | 250° |
| 2026-05-04 15:29 | 50.04119 | 8.55437 | 374 ft | 16 kts | 250° |
| 2026-05-04 15:30 | 50.03967 | 8.54802 | 374 ft | 16 kts | 249° |
| 2026-05-04 15:30 | 50.03831 | 8.54307 | 374 ft | 17 kts | 234° |
| 2026-05-04 15:31 | 50.03735 | 8.53952 | 374 ft | 17 kts | 247° |
| 2026-05-04 15:31 | 50.03693 | 8.53773 | 374 ft | 18 kts | 250° |
| 2026-05-04 15:32 | 50.03569 | 8.53270 | 374 ft | 11 kts | 250° |
| 2026-05-04 15:32 | 50.03507 | 8.53009 | 374 ft | 14 kts | 250° |
| 2026-05-04 15:33 | 50.03437 | 8.52746 | 374 ft | 5 kts | 251° |
| 2026-05-04 15:34 | 50.03431 | 8.52722 | 374 ft | 0 kts | 251° |
| 2026-05-04 15:36 | 50.03426 | 8.52698 | 374 ft | 7 kts | 250° |
| 2026-05-04 15:36 | 50.03407 | 8.52618 | 374 ft | 7 kts | 249° |
| 2026-05-04 15:36 | 50.03370 | 8.52588 | 374 ft | 1 kts | 178° |
| 2026-05-04 15:37 | 50.03369 | 8.52588 | 374 ft | 0 kts | 179° |
| 2026-05-04 15:37 | 50.03343 | 8.52589 | 374 ft | 17 kts | 179° |
| 2026-05-04 15:37 | 50.02958 | 8.52593 | 374 ft | 93 kts | 180° |
| 2026-05-04 15:37 | 50.02074 | 8.52604 | 373 ft | 157 kts | 181° |
| 2026-05-04 15:38 | 50.00901 | 8.52646 | 765 ft | 175 kts | 179° |
| 2026-05-04 15:38 | 49.99709 | 8.52728 | 1551 ft | 169 kts | 180° |
| 2026-05-04 15:38 | 49.98586 | 8.52814 | 2342 ft | 164 kts | 179° |
| 2026-05-04 15:38 | 49.97405 | 8.52896 | 2836 ft | 178 kts | 179° |
| 2026-05-04 15:39 | 49.96135 | 8.52980 | 3307 ft | 194 kts | 179° |
| 2026-05-04 15:39 | 49.94727 | 8.53073 | 3770 ft | 213 kts | 179° |
| 2026-05-04 15:39 | 49.91546 | 8.53287 | 3906 ft | 234 kts | 179° |
| 2026-05-04 15:40 | 49.89891 | 8.53398 | 3945 ft | 235 kts | 179° |
| 2026-05-04 15:40 | 49.88237 | 8.53508 | 4152 ft | 241 kts | 179° |
| 2026-05-04 15:40 | 49.86575 | 8.53616 | 4996 ft | 242 kts | 178° |
| 2026-05-04 15:40 | 49.84934 | 8.53721 | 5984 ft | 238 kts | 178° |
| 2026-05-04 15:41 | 49.83280 | 8.53830 | 6858 ft | 238 kts | 178° |
| 2026-05-04 15:41 | 49.81626 | 8.53944 | 7679 ft | 239 kts | 178° |
| 2026-05-04 15:41 | 49.79981 | 8.54056 | 8495 ft | 240 kts | 178° |
| 2026-05-04 15:41 | 49.78320 | 8.54123 | 9311 ft | 240 kts | 182° |
| 2026-05-04 15:42 | 49.76651 | 8.53987 | 9874 ft | 250 kts | 185° |
| 2026-05-04 15:42 | 49.74856 | 8.53753 | 10288 ft | 268 kts | 186° |
| 2026-05-04 15:42 | 49.72915 | 8.53492 | 10684 ft | 286 kts | 185° |
| 2026-05-04 15:42 | 49.70866 | 8.53219 | 11051 ft | 303 kts | 186° |
| 2026-05-04 15:43 | 49.68700 | 8.52931 | 11403 ft | 321 kts | 186° |
| 2026-05-04 15:43 | 49.66431 | 8.52631 | 11720 ft | 339 kts | 186° |
| 2026-05-04 15:43 | 49.64014 | 8.52310 | 12018 ft | 356 kts | 186° |
| 2026-05-04 15:43 | 49.61500 | 8.51978 | 12311 ft | 372 kts | 186° |
| 2026-05-04 15:44 | 49.58861 | 8.51630 | 12802 ft | 381 kts | 186° |
| 2026-05-04 15:44 | 49.56247 | 8.51286 | 13469 ft | 384 kts | 186° |
| 2026-05-04 15:44 | 49.53579 | 8.50935 | 14115 ft | 388 kts | 186° |
| 2026-05-04 15:44 | 49.50867 | 8.50578 | 14732 ft | 392 kts | 186° |
| 2026-05-04 15:45 | 49.48156 | 8.50324 | 15333 ft | 396 kts | 180° |
| 2026-05-04 15:45 | 49.45402 | 8.50882 | 15930 ft | 401 kts | 171° |
| 2026-05-04 15:45 | 49.42667 | 8.51779 | 16521 ft | 405 kts | 169° |
| 2026-05-04 15:45 | 49.39940 | 8.52727 | 16849 ft | 407 kts | 169° |
| 2026-05-04 15:46 | 49.37174 | 8.53698 | 16914 ft | 408 kts | 169° |
| 2026-05-04 15:46 | 49.34428 | 8.54660 | 16757 ft | 402 kts | 169° |
| 2026-05-04 15:46 | 49.31737 | 8.55602 | 16160 ft | 399 kts | 169° |
| 2026-05-04 15:46 | 49.29021 | 8.56550 | 15449 ft | 398 kts | 169° |
| 2026-05-04 15:47 | 49.26362 | 8.57470 | 14835 ft | 395 kts | 169° |
| 2026-05-04 15:47 | 49.23704 | 8.58383 | 14236 ft | 391 kts | 169° |
| 2026-05-04 15:47 | 49.21064 | 8.59286 | 13632 ft | 387 kts | 168° |
| 2026-05-04 15:47 | 49.18438 | 8.60176 | 13030 ft | 384 kts | 169° |
| 2026-05-04 15:48 | 49.15837 | 8.61058 | 12441 ft | 380 kts | 168° |
| 2026-05-04 15:48 | 49.13282 | 8.61924 | 11853 ft | 377 kts | 169° |
| 2026-05-04 15:48 | 49.08307 | 8.63616 | 10718 ft | 370 kts | 169° |
| 2026-05-04 15:49 | 49.05936 | 8.64423 | 10267 ft | 363 kts | 168° |
| 2026-05-04 15:49 | 49.03491 | 8.65255 | 10054 ft | 349 kts | 168° |
| 2026-05-04 15:49 | 49.01166 | 8.66047 | 9834 ft | 337 kts | 169° |
| 2026-05-04 15:49 | 48.98909 | 8.66817 | 9620 ft | 325 kts | 168° |
| 2026-05-04 15:50 | 48.96745 | 8.67552 | 9400 ft | 314 kts | 168° |
| 2026-05-04 15:50 | 48.94661 | 8.68255 | 9203 ft | 303 kts | 168° |
| 2026-05-04 15:50 | 48.92621 | 8.68939 | 9009 ft | 293 kts | 168° |
| 2026-05-04 15:50 | 48.90659 | 8.69593 | 8831 ft | 283 kts | 168° |
| 2026-05-04 15:51 | 48.88790 | 8.70213 | 8652 ft | 274 kts | 169° |
| 2026-05-04 15:51 | 48.86942 | 8.70820 | 8333 ft | 270 kts | 168° |
| 2026-05-04 15:51 | 48.85101 | 8.71414 | 7922 ft | 271 kts | 168° |
| 2026-05-04 15:51 | 48.83270 | 8.71994 | 7518 ft | 271 kts | 168° |
| 2026-05-04 15:52 | 48.81411 | 8.72572 | 7121 ft | 270 kts | 168° |
| 2026-05-04 15:52 | 48.79583 | 8.73129 | 6725 ft | 270 kts | 168° |
| 2026-05-04 15:52 | 48.77745 | 8.73682 | 6312 ft | 271 kts | 168° |
| 2026-05-04 15:52 | 48.75892 | 8.74231 | 5938 ft | 269 kts | 168° |
| 2026-05-04 15:53 | 48.74093 | 8.74764 | 5671 ft | 257 kts | 169° |
| 2026-05-04 15:53 | 48.72336 | 8.75217 | 5175 ft | 255 kts | 178° |
| 2026-05-04 15:53 | 48.70620 | 8.74695 | 4989 ft | 257 kts | 208° |
| 2026-05-04 15:53 | 48.69235 | 8.72970 | 4992 ft | 260 kts | 229° |
| 2026-05-04 15:54 | 48.68090 | 8.70839 | 4990 ft | 262 kts | 233° |
| 2026-05-04 15:54 | 48.66970 | 8.68699 | 4980 ft | 255 kts | 225° |
| 2026-05-04 15:54 | 48.65538 | 8.67376 | 4942 ft | 238 kts | 194° |
| 2026-05-04 15:54 | 48.63891 | 8.67332 | 4978 ft | 236 kts | 169° |
| 2026-05-04 15:55 | 48.62301 | 8.67927 | 4971 ft | 238 kts | 157° |
| 2026-05-04 15:55 | 48.60999 | 8.69414 | 4953 ft | 235 kts | 124° |
| 2026-05-04 15:55 | 48.60392 | 8.71674 | 4981 ft | 235 kts | 100° |
| 2026-05-04 15:55 | 48.60193 | 8.74107 | 4981 ft | 236 kts | 92° |
| 2026-05-04 15:56 | 48.60291 | 8.76595 | 4975 ft | 236 kts | 80° |
| 2026-05-04 15:56 | 48.60687 | 8.78976 | 4973 ft | 236 kts | 71° |
| 2026-05-04 15:56 | 48.61223 | 8.81335 | 4971 ft | 236 kts | 70° |
| 2026-05-04 15:56 | 48.61744 | 8.83678 | 4970 ft | 237 kts | 72° |
| 2026-05-04 15:57 | 48.62234 | 8.86060 | 4962 ft | 237 kts | 73° |
| 2026-05-04 15:57 | 48.62694 | 8.88447 | 4960 ft | 236 kts | 74° |
| 2026-05-04 15:57 | 48.63134 | 8.90811 | 4955 ft | 236 kts | 75° |
| 2026-05-04 15:57 | 48.63569 | 8.93186 | 4782 ft | 229 kts | 74° |
| 2026-05-04 15:58 | 48.63987 | 8.95474 | 4478 ft | 226 kts | 74° |
| 2026-05-04 15:58 | 48.64400 | 8.97723 | 4176 ft | 218 kts | 74° |
| 2026-05-04 15:58 | 48.64798 | 8.99881 | 3905 ft | 207 kts | 73° |
| 2026-05-04 15:58 | 48.65167 | 9.01875 | 3756 ft | 192 kts | 73° |
| 2026-05-04 15:59 | 48.65524 | 9.03791 | 3487 ft | 188 kts | 72° |
| 2026-05-04 15:59 | 48.65879 | 9.05687 | 3233 ft | 186 kts | 72° |
| 2026-05-04 15:59 | 48.66219 | 9.07511 | 2964 ft | 176 kts | 72° |
| 2026-05-04 15:59 | 48.66542 | 9.09237 | 2728 ft | 161 kts | 71° |
| 2026-05-04 16:00 | 48.66839 | 9.10818 | 2542 ft | 156 kts | 71° |
| 2026-05-04 16:00 | 48.67136 | 9.12383 | 2318 ft | 154 kts | 71° |
| 2026-05-04 16:00 | 48.67432 | 9.13956 | 2128 ft | 154 kts | 72° |
| 2026-05-04 16:00 | 48.67715 | 9.15502 | 1964 ft | 154 kts | 71° |
| 2026-05-04 16:01 | 48.68005 | 9.17059 | 1757 ft | 155 kts | 71° |
| 2026-05-04 16:01 | 48.68311 | 9.18635 | 1563 ft | 157 kts | 71° |
| 2026-05-04 16:01 | 48.68608 | 9.20199 | 1450 ft | 155 kts | 71° |
| 2026-05-04 16:01 | 48.68905 | 9.21806 | 1990 ft | 162 kts | 72° |
| 2026-05-04 16:02 | 48.69194 | 9.23440 | 2672 ft | 166 kts | 72° |
| 2026-05-04 16:02 | 48.69495 | 9.25081 | 3446 ft | 165 kts | 71° |
| 2026-05-04 16:02 | 48.70888 | 9.27719 | 4517 ft | 186 kts | 14° |
| 2026-05-04 16:03 | 48.72227 | 9.27541 | 4847 ft | 207 kts | 337° |
| 2026-05-04 16:03 | 48.73395 | 9.26066 | 4929 ft | 237 kts | 305° |
| 2026-05-04 16:03 | 48.74054 | 9.23740 | 4883 ft | 243 kts | 287° |
| 2026-05-04 16:03 | 48.74485 | 9.21255 | 4924 ft | 244 kts | 284° |
| 2026-05-04 16:04 | 48.74875 | 9.18787 | 4940 ft | 240 kts | 283° |
| 2026-05-04 16:04 | 48.75310 | 9.13797 | 4964 ft | 240 kts | 266° |
| 2026-05-04 16:04 | 48.75166 | 9.11259 | 4967 ft | 240 kts | 264° |
| 2026-05-04 16:05 | 48.74983 | 9.08770 | 4962 ft | 240 kts | 263° |
| 2026-05-04 16:05 | 48.74758 | 9.06263 | 4963 ft | 240 kts | 260° |
| 2026-05-04 16:05 | 48.74104 | 9.01342 | 4961 ft | 240 kts | 258° |
| 2026-05-04 16:06 | 48.73757 | 8.98864 | 4967 ft | 239 kts | 258° |
| 2026-05-04 16:06 | 48.72836 | 8.92334 | 4973 ft | 239 kts | 258° |
| 2026-05-04 16:07 | 48.72378 | 8.89033 | 4973 ft | 238 kts | 258° |
| 2026-05-04 16:07 | 48.69008 | 8.84775 | 4253 ft | 234 kts | 173° |
| 2026-05-04 16:08 | 48.67422 | 8.85253 | 4012 ft | 234 kts | 165° |
| 2026-05-04 16:08 | 48.64354 | 8.90390 | 3973 ft | 227 kts | 105° |
| 2026-05-04 16:09 | 48.63914 | 8.94893 | 4060 ft | 204 kts | 84° |
| 2026-05-04 16:09 | 48.64515 | 8.98695 | 3940 ft | 166 kts | 70° |
| 2026-05-04 16:10 | 48.65178 | 9.01928 | 3671 ft | 161 kts | 71° |
| 2026-05-04 16:11 | 48.66086 | 9.06764 | 3046 ft | 158 kts | 72° |
| 2026-05-04 16:11 | 48.66388 | 9.08389 | 2834 ft | 159 kts | 71° |
| 2026-05-04 16:12 | 48.67287 | 9.13193 | 2255 ft | 155 kts | 71° |
| 2026-05-04 16:12 | 48.68164 | 9.17878 | 1654 ft | 154 kts | 71° |
| 2026-05-04 16:13 | 48.68741 | 9.20927 | 1268 ft | 145 kts | 70° |
| 2026-05-04 16:13 | 48.69146 | 9.22897 | 1215 ft | 35 kts | 54° |
| 2026-05-04 16:14 | 48.69320 | 9.23157 | 1208 ft | 12 kts | 8° |
| 2026-05-04 16:14 | 48.69400 | 9.23013 | 1212 ft | 9 kts | 254° |
| 2026-05-04 16:15 | 48.69360 | 9.22797 | 1218 ft | 8 kts | 253° |
| 2026-05-04 16:16 | 48.69302 | 9.22498 | 1227 ft | 20 kts | 254° |
| 2026-05-04 16:16 | 48.69171 | 9.21806 | 1243 ft | 19 kts | 254° |
| 2026-05-04 16:17 | 48.69101 | 9.21433 | 1250 ft | 17 kts | 254° |
| 2026-05-04 16:18 | 48.69027 | 9.21045 | 1258 ft | 10 kts | 252° |
| 2026-05-04 16:18 | 48.69007 | 9.20941 | 1261 ft | 12 kts | 254° |
| 2026-05-04 16:19 | 48.69009 | 9.20559 | 1274 ft | 9 kts | 316° |
| 2026-05-04 16:19 | 48.69036 | 9.20323 | 1281 ft | 14 kts | 253° |
| 2026-05-04 16:20 | 48.68952 | 9.19973 | 1294 ft | 12 kts | 238° |
| 2026-05-04 16:20 | 48.68865 | 9.19715 | 1294 ft | 13 kts | 253° |
| 2026-05-04 16:21 | 48.68932 | 9.19658 | 1294 ft | 5 kts | 345° |
| 2026-05-04 16:22 | 48.68935 | 9.19656 | 1294 ft | 0 kts | 344° |